createdAt,value
2022-08-02T00:01:04.198Z,17.94
2022-08-02T00:03:33.666Z,17.92
2022-08-02T00:06:02.221Z,17.90
2022-08-02T00:08:31.310Z,17.89
2022-08-02T00:10:59.017Z,17.85
2022-08-02T00:13:26.959Z,17.83
2022-08-02T00:15:56.793Z,17.79
2022-08-02T00:18:26.856Z,17.71
2022-08-02T00:20:55.452Z,17.61
2022-08-02T00:23:23.492Z,17.47
2022-08-02T00:25:55.603Z,17.39
2022-08-02T00:28:27.486Z,17.29
2022-08-02T00:30:57.654Z,17.23
2022-08-02T00:34:26.969Z,17.22
2022-08-02T00:36:17.784Z,17.20
2022-08-02T00:38:46.545Z,17.13
2022-08-02T00:41:17.772Z,17.07
2022-08-02T00:43:47.480Z,17.04
2022-08-02T00:46:16.797Z,16.96
2022-08-02T00:48:48.610Z,16.91
2022-08-02T00:51:18.021Z,16.91
2022-08-02T00:53:45.763Z,16.92
2022-08-02T00:56:13.443Z,16.89
2022-08-02T00:58:41.655Z,16.88
2022-08-02T01:01:09.592Z,16.90
2022-08-02T01:03:37.362Z,16.91
2022-08-02T01:06:13.380Z,16.89
2022-08-02T01:08:41.400Z,16.86
2022-08-02T01:11:12.931Z,16.81
2022-08-02T01:13:40.782Z,16.74
2022-08-02T01:16:16.293Z,16.66
2022-08-02T01:18:48.620Z,16.62
2022-08-02T01:21:33.767Z,16.57
2022-08-02T01:24:18.083Z,16.52
2022-08-02T01:27:00.797Z,16.47
2022-08-02T01:29:42.415Z,16.42
2022-08-02T01:32:18.236Z,16.43
2022-08-02T01:35:04.955Z,16.45
2022-08-02T01:37:40.000Z,16.49
2022-08-02T01:40:12.131Z,16.55
2022-08-02T01:42:45.950Z,16.53
2022-08-02T01:45:16.026Z,16.48
2022-08-02T01:47:46.598Z,16.47
2022-08-02T01:50:18.290Z,16.43
2022-08-02T01:52:53.661Z,16.38
2022-08-02T01:55:33.391Z,16.36
2022-08-02T01:58:07.457Z,16.36
2022-08-02T02:00:40.044Z,16.37
2022-08-02T02:03:13.802Z,16.41
2022-08-02T02:05:44.267Z,16.48
2022-08-02T02:08:12.731Z,16.53
2022-08-02T02:10:42.352Z,16.56
2022-08-02T02:13:14.931Z,16.58
2022-08-02T02:15:47.203Z,16.60
2022-08-02T02:18:24.003Z,16.61
2022-08-02T02:20:55.430Z,16.62
2022-08-02T02:23:24.423Z,16.64
2022-08-02T02:25:55.667Z,16.68
2022-08-02T02:28:31.408Z,16.75
2022-08-02T02:31:15.386Z,16.81
2022-08-02T02:33:54.539Z,16.89
2022-08-02T02:36:23.055Z,16.94
2022-08-02T02:38:52.973Z,16.97
2022-08-02T02:41:21.409Z,16.99
2022-08-02T02:43:50.682Z,16.99
2022-08-02T02:46:21.484Z,16.94
2022-08-02T02:48:54.666Z,16.80
2022-08-02T02:51:24.119Z,16.63
2022-08-02T02:54:30.519Z,16.51
2022-08-02T02:56:42.487Z,16.38
2022-08-02T02:59:10.730Z,16.34
2022-08-02T03:01:56.713Z,16.28
2022-08-02T03:04:56.226Z,16.16
2022-08-02T03:07:18.088Z,16.04
2022-08-02T03:09:47.988Z,16.05
2022-08-02T03:12:28.764Z,16.06
2022-08-02T03:15:06.093Z,16.06
2022-08-02T03:17:50.246Z,16.09
2022-08-02T03:20:20.363Z,16.13
2022-08-02T03:22:50.223Z,16.15
2022-08-02T03:25:18.638Z,16.18
2022-08-02T03:27:47.973Z,16.20
2022-08-02T03:30:18.330Z,16.22
2022-08-02T03:32:48.366Z,16.24
2022-08-02T03:35:23.675Z,16.26
2022-08-02T03:37:56.981Z,16.28
2022-08-02T03:40:25.766Z,16.28
2022-08-02T03:42:54.784Z,16.23
2022-08-02T03:45:24.774Z,16.20
2022-08-02T03:47:52.601Z,16.14
2022-08-02T03:50:22.923Z,16.11
2022-08-02T03:52:52.487Z,16.10
2022-08-02T03:55:25.269Z,16.08
2022-08-02T03:57:56.692Z,16.08
2022-08-02T04:00:26.484Z,16.06
2022-08-02T04:02:54.228Z,16.04
2022-08-02T04:05:22.067Z,16.03
2022-08-02T04:08:34.179Z,16.05
2022-08-02T04:10:55.652Z,16.10
2022-08-02T04:13:31.830Z,16.17
2022-08-02T04:16:40.719Z,16.20
2022-08-02T04:19:15.614Z,16.25
2022-08-02T04:21:50.407Z,16.25
2022-08-02T04:24:34.570Z,16.26
2022-08-02T04:27:49.304Z,16.27
2022-08-02T04:30:00.698Z,16.31
2022-08-02T04:32:29.170Z,16.37
2022-08-02T04:38:05.480Z,16.49
2022-08-02T04:40:38.109Z,16.55
2022-08-02T04:43:07.391Z,16.59
2022-08-02T04:45:36.025Z,16.62
2022-08-02T04:48:05.368Z,16.65
2022-08-02T04:50:35.528Z,16.67
2022-08-02T04:53:04.731Z,16.68
2022-08-02T04:55:33.063Z,16.71
2022-08-02T04:58:03.960Z,16.75
2022-08-02T05:00:37.877Z,16.78
2022-08-02T05:03:07.625Z,16.78
2022-08-02T05:05:36.084Z,16.77
2022-08-02T05:08:04.755Z,16.77
2022-08-02T05:10:32.542Z,16.81
2022-08-02T05:13:04.439Z,16.87
2022-08-02T05:15:33.743Z,16.95
2022-08-02T05:18:01.565Z,17.06
2022-08-02T05:20:31.899Z,17.18
2022-08-02T05:23:00.546Z,17.27
2022-08-02T05:25:28.395Z,17.35
2022-08-02T05:27:59.614Z,17.46
2022-08-02T05:30:27.584Z,17.56
2022-08-02T05:32:55.346Z,17.64
2022-08-02T05:35:25.103Z,17.71
2022-08-02T05:37:54.317Z,17.80
2022-08-02T05:40:25.972Z,17.87
2022-08-02T05:42:55.852Z,17.91
2022-08-02T05:45:23.740Z,17.97
2022-08-02T05:47:54.748Z,18.04
2022-08-02T05:50:24.273Z,18.14
2022-08-02T05:53:05.148Z,18.21
2022-08-02T05:55:38.531Z,18.25
2022-08-02T05:58:22.402Z,18.32
2022-08-02T06:00:55.722Z,18.37
2022-08-02T06:03:34.810Z,18.41
2022-08-02T06:06:23.584Z,18.47
2022-08-02T06:09:08.081Z,18.56
2022-08-02T06:11:43.019Z,18.69
2022-08-02T06:14:34.891Z,18.80
2022-08-02T06:17:06.477Z,18.86
2022-08-02T06:19:51.335Z,18.95
2022-08-02T06:22:35.897Z,19.00
2022-08-02T06:25:11.879Z,19.11
2022-08-02T06:27:57.531Z,19.21
2022-08-02T06:30:27.321Z,19.27
2022-08-02T06:32:58.988Z,19.30
2022-08-02T06:36:07.075Z,19.33
2022-08-02T06:38:58.331Z,19.35
2022-08-02T06:41:30.317Z,19.42
2022-08-02T06:44:26.266Z,19.53
2022-08-02T06:47:11.179Z,19.59
2022-08-02T06:49:52.632Z,19.65
2022-08-02T06:52:30.171Z,19.74
2022-08-02T06:55:02.019Z,19.83
2022-08-02T06:57:30.775Z,19.91
2022-08-02T07:00:04.986Z,19.98
2022-08-02T07:02:33.248Z,20.06
2022-08-02T07:05:03.504Z,20.09
2022-08-02T07:07:38.411Z,20.17
2022-08-02T07:10:06.466Z,20.26
2022-08-02T07:12:34.935Z,20.35
2022-08-02T07:15:07.556Z,20.37
2022-08-02T07:17:36.015Z,20.30
2022-08-02T07:20:05.282Z,20.22
2022-08-02T07:22:33.335Z,20.22
2022-08-02T07:25:02.522Z,20.20
2022-08-02T07:27:33.346Z,20.25
2022-08-02T07:30:02.768Z,20.33
2022-08-02T07:32:32.431Z,20.52
2022-08-02T07:35:02.638Z,20.76
2022-08-02T07:38:02.242Z,20.86
2022-08-02T07:40:35.414Z,20.96
2022-08-02T07:43:04.438Z,21.02
2022-08-02T07:46:00.513Z,21.09
2022-08-02T07:48:40.349Z,21.10
2022-08-02T07:51:17.420Z,21.18
2022-08-02T07:54:02.215Z,21.35
2022-08-02T07:56:41.202Z,21.39
2022-08-02T07:59:12.355Z,21.49
2022-08-02T08:01:45.924Z,21.63
2022-08-02T08:04:28.914Z,21.68
2022-08-02T08:06:57.503Z,21.78
2022-08-02T08:09:33.097Z,21.81
2022-08-02T08:12:14.389Z,21.86
2022-08-02T08:14:49.744Z,21.88
2022-08-02T08:17:27.337Z,21.91
2022-08-02T08:19:55.481Z,21.91
2022-08-02T08:22:31.941Z,21.89
2022-08-02T08:25:05.221Z,21.97
2022-08-02T08:27:45.360Z,22.19
2022-08-02T08:30:21.160Z,22.32
2022-08-02T08:32:54.527Z,22.36
2022-08-02T08:35:23.943Z,22.34
2022-08-02T08:38:01.968Z,22.31
2022-08-02T08:40:46.031Z,22.33
2022-08-02T08:46:44.247Z,22.67
2022-08-02T08:52:45.525Z,22.80
2022-08-02T08:55:17.115Z,22.86
2022-08-02T08:57:46.019Z,22.88
2022-08-02T09:00:18.095Z,22.82
2022-08-02T09:02:53.863Z,22.83
2022-08-02T09:05:29.139Z,22.87
2022-08-02T09:07:58.713Z,22.98
2022-08-02T09:10:45.293Z,22.98
2022-08-02T09:13:45.499Z,22.94
2022-08-02T09:16:40.986Z,22.98
2022-08-02T09:19:32.685Z,23.02
2022-08-02T09:22:11.234Z,23.14
2022-08-02T09:24:52.858Z,23.24
2022-08-02T09:27:29.365Z,23.42
2022-08-02T09:30:13.395Z,23.56
2022-08-02T09:32:46.757Z,23.43
2022-08-02T09:36:05.304Z,23.40
2022-08-02T09:38:25.989Z,23.43
2022-08-02T09:41:20.543Z,23.50
2022-08-02T09:44:05.589Z,23.74
2022-08-02T09:49:26.451Z,24.04
2022-08-02T09:51:57.903Z,24.10
2022-08-02T09:54:30.455Z,24.03
2022-08-02T09:57:02.003Z,23.77
2022-08-02T09:59:31.647Z,23.75
2022-08-02T10:02:04.410Z,23.86
2022-08-02T10:04:53.310Z,24.03
2022-08-02T10:07:24.037Z,24.39
2022-08-02T10:09:56.123Z,24.67
2022-08-02T10:12:27.891Z,24.86
2022-08-02T10:14:56.016Z,24.68
2022-08-02T10:17:26.843Z,24.31
2022-08-02T10:20:01.765Z,24.23
2022-08-02T10:22:38.956Z,24.41
2022-08-02T10:25:10.225Z,24.51
2022-08-02T10:28:04.228Z,24.72
2022-08-02T10:30:38.486Z,25.05
2022-08-02T10:33:10.479Z,24.92
2022-08-02T10:35:41.303Z,24.74
2022-08-02T10:38:16.423Z,24.63
2022-08-02T10:40:46.473Z,24.83
2022-08-02T10:43:37.121Z,24.81
2022-08-02T10:46:36.941Z,24.80
2022-08-02T10:49:37.547Z,24.84
2022-08-02T10:52:05.970Z,24.72
2022-08-02T10:54:38.508Z,25.00
2022-08-02T10:57:31.282Z,25.19
2022-08-02T11:00:31.247Z,25.08
2022-08-02T11:02:59.773Z,24.84
2022-08-02T11:05:42.647Z,24.71
2022-08-02T11:08:20.222Z,24.68
2022-08-02T11:10:48.325Z,24.80
2022-08-02T11:13:19.637Z,25.00
2022-08-02T11:15:55.265Z,25.10
2022-08-02T11:18:43.974Z,25.09
2022-08-02T11:21:29.546Z,25.04
2022-08-02T11:24:32.243Z,25.07
2022-08-02T11:27:08.949Z,25.04
2022-08-02T11:29:39.457Z,24.99
2022-08-02T11:32:15.259Z,24.94
2022-08-02T11:34:45.420Z,25.30
2022-08-02T11:37:13.247Z,25.65
2022-08-02T11:39:41.021Z,25.83
2022-08-02T11:42:08.746Z,26.04
2022-08-02T11:44:44.187Z,26.12
2022-08-02T11:47:14.112Z,26.07
2022-08-02T11:49:43.167Z,26.50
2022-08-02T11:52:12.928Z,26.96
2022-08-02T11:54:43.547Z,27.26
2022-08-02T11:57:21.935Z,27.43
2022-08-02T11:59:52.555Z,27.83
2022-08-02T12:02:23.337Z,28.27
2022-08-02T12:04:58.437Z,28.51
2022-08-02T12:07:33.558Z,28.69
2022-08-02T12:10:06.098Z,28.92
2022-08-02T12:12:54.476Z,28.79
2022-08-02T12:15:46.059Z,29.23
2022-08-02T12:18:36.826Z,29.94
2022-08-02T12:21:24.627Z,30.06
2022-08-02T12:24:13.383Z,30.16
2022-08-02T12:26:45.609Z,30.62
2022-08-02T12:29:14.647Z,30.58
2022-08-02T12:32:10.245Z,30.52
2022-08-02T12:34:38.703Z,30.61
2022-08-02T12:37:09.029Z,29.99
2022-08-02T12:39:54.202Z,29.31
2022-08-02T12:42:29.428Z,28.70
2022-08-02T12:45:00.497Z,28.39
2022-08-02T12:47:35.396Z,28.34
2022-08-02T12:50:21.326Z,28.68
2022-08-02T12:52:49.587Z,28.99
2022-08-02T12:55:24.715Z,28.99
2022-08-02T12:58:01.483Z,28.62
2022-08-02T13:00:32.415Z,28.17
2022-08-02T13:03:00.845Z,27.86
2022-08-02T13:05:29.894Z,27.59
2022-08-02T13:08:18.542Z,27.77
2022-08-02T13:10:46.302Z,27.66
2022-08-02T13:13:16.463Z,27.64
2022-08-02T13:15:49.709Z,27.52
2022-08-02T13:18:19.123Z,27.44
2022-08-02T13:20:47.304Z,27.53
2022-08-02T13:23:21.824Z,27.49
2022-08-02T13:25:52.740Z,27.80
2022-08-02T13:28:21.416Z,28.54
2022-08-02T13:30:51.058Z,29.22
2022-08-02T13:33:18.958Z,29.71
2022-08-02T13:35:47.918Z,30.23
2022-08-02T13:38:15.939Z,30.62
2022-08-02T13:41:04.851Z,30.70
2022-08-02T13:43:53.337Z,30.90
2022-08-02T13:46:29.314Z,31.44
2022-08-02T13:48:57.614Z,31.77
2022-08-02T13:51:26.119Z,31.99
2022-08-02T13:53:53.891Z,32.09
2022-08-02T13:56:35.226Z,32.34
2022-08-02T13:59:23.683Z,31.98
2022-08-02T14:01:54.192Z,31.39
2022-08-02T14:04:22.823Z,31.28
2022-08-02T14:06:51.038Z,31.26
2022-08-02T14:09:20.806Z,31.59
2022-08-02T14:11:50.016Z,32.02
2022-08-02T14:14:18.146Z,32.54
2022-08-02T14:16:45.918Z,32.75
2022-08-02T14:19:17.632Z,32.46
2022-08-02T14:21:46.337Z,32.12
2022-08-02T14:24:20.194Z,31.91
2022-08-02T14:26:48.669Z,31.13
2022-08-02T14:29:17.559Z,30.34
2022-08-02T14:31:45.435Z,29.81
2022-08-02T14:34:14.295Z,29.28
2022-08-02T14:36:41.978Z,28.77
2022-08-02T14:39:10.411Z,28.74
2022-08-02T14:41:59.325Z,29.18
2022-08-02T14:44:26.473Z,29.87
2022-08-02T14:46:54.841Z,30.17
2022-08-02T14:49:25.579Z,30.05
2022-08-02T14:51:55.203Z,29.95
2022-08-02T14:54:28.015Z,29.95
2022-08-02T14:57:00.974Z,29.70
2022-08-02T14:59:29.828Z,29.46
2022-08-02T15:01:59.453Z,29.34
2022-08-02T15:04:27.532Z,29.58
2022-08-02T15:06:55.264Z,29.87
2022-08-02T15:09:23.260Z,30.21
2022-08-02T15:11:52.668Z,30.48
2022-08-02T15:14:26.252Z,30.67
2022-08-02T15:16:57.508Z,30.69
2022-08-02T15:19:56.118Z,30.39
2022-08-02T15:22:19.073Z,30.15
2022-08-02T15:24:48.576Z,30.04
2022-08-02T15:27:17.426Z,29.94
2022-08-02T15:29:46.725Z,29.46
2022-08-02T15:32:18.877Z,29.14
2022-08-02T15:34:48.095Z,29.11
2022-08-02T15:37:15.839Z,29.18
2022-08-02T15:39:44.107Z,29.37
2022-08-02T15:42:12.664Z,29.38
2022-08-02T15:44:43.640Z,29.42
2022-08-02T15:47:13.543Z,29.45
2022-08-02T15:49:42.019Z,29.39
2022-08-02T15:52:10.376Z,29.21
2022-08-02T15:54:39.375Z,29.06
2022-08-02T15:57:10.984Z,28.94
2022-08-02T15:59:46.514Z,28.81
2022-08-02T16:02:40.842Z,28.66
2022-08-02T16:05:14.197Z,28.60
2022-08-02T16:07:47.648Z,28.42
2022-08-02T16:10:16.910Z,28.25
2022-08-02T16:12:45.685Z,28.29
2022-08-02T16:15:19.041Z,28.48
2022-08-02T16:17:48.812Z,28.62
2022-08-02T16:20:23.074Z,28.51
2022-08-02T16:22:51.101Z,28.16
2022-08-02T16:25:19.521Z,27.89
2022-08-02T16:28:06.423Z,27.68
2022-08-02T16:30:35.221Z,27.59
2022-08-02T16:33:03.955Z,27.57
2022-08-02T16:35:31.702Z,27.70
2022-08-02T16:37:59.431Z,27.78
2022-08-02T16:40:28.504Z,28.00
2022-08-02T16:42:56.354Z,28.22
2022-08-02T16:45:24.144Z,28.67
2022-08-02T16:47:55.903Z,29.42
2022-08-02T16:50:29.347Z,29.39
2022-08-02T16:52:58.749Z,29.13
2022-08-02T16:55:29.327Z,29.01
2022-08-02T16:58:01.047Z,29.06
2022-08-02T17:00:29.598Z,28.90
2022-08-02T17:02:59.601Z,28.72
2022-08-02T17:05:37.549Z,28.58
2022-08-02T17:08:07.645Z,28.23
2022-08-02T17:10:46.854Z,28.03
2022-08-02T17:13:14.803Z,28.01
2022-08-02T17:16:07.538Z,28.06
2022-08-02T17:18:32.518Z,28.07
2022-08-02T17:21:04.699Z,27.97
2022-08-02T17:24:03.805Z,27.74
2022-08-02T17:26:20.747Z,27.42
2022-08-02T17:29:16.956Z,27.17
2022-08-02T17:31:42.380Z,26.97
2022-08-02T17:34:12.933Z,26.83
2022-08-02T17:36:49.699Z,26.77
2022-08-02T17:39:17.931Z,26.91
2022-08-02T17:41:49.425Z,27.18
2022-08-02T17:44:37.491Z,27.35
2022-08-02T17:47:07.079Z,27.36
2022-08-02T17:49:42.660Z,27.27
2022-08-02T17:52:51.023Z,27.14
2022-08-02T17:55:13.683Z,27.01
2022-08-02T17:57:57.115Z,26.97
2022-08-02T18:00:35.617Z,26.98
2022-08-02T18:03:10.249Z,26.97
2022-08-02T18:05:53.722Z,26.91
2022-08-02T18:11:12.215Z,26.66
2022-08-02T18:13:53.120Z,26.48
2022-08-02T18:16:21.730Z,26.33
2022-08-02T18:18:50.399Z,26.07
2022-08-02T18:21:22.522Z,25.91
2022-08-02T18:23:58.535Z,25.83
2022-08-02T18:26:28.525Z,25.62
2022-08-02T18:28:57.750Z,25.40
2022-08-02T18:31:26.995Z,25.18
2022-08-02T18:34:02.017Z,24.98
2022-08-02T18:36:31.030Z,24.76
2022-08-02T18:39:08.209Z,24.61
2022-08-02T18:41:36.528Z,24.50
2022-08-02T18:44:06.471Z,24.39
2022-08-02T18:46:34.347Z,24.25
2022-08-02T18:49:06.786Z,24.12
2022-08-02T18:51:44.037Z,23.95
2022-08-02T18:54:12.710Z,23.82
2022-08-02T18:56:40.541Z,23.71
2022-08-02T18:59:16.537Z,23.61
2022-08-02T19:01:50.689Z,23.51
2022-08-02T19:04:27.435Z,23.45
2022-08-02T19:07:06.917Z,23.34
2022-08-02T19:09:40.185Z,23.19
2022-08-02T19:12:28.299Z,23.03
2022-08-02T19:14:58.860Z,22.94
2022-08-02T19:17:55.042Z,22.90
2022-08-02T19:20:19.548Z,22.86
2022-08-02T19:22:53.592Z,22.81
2022-08-02T19:25:27.862Z,22.75
2022-08-02T19:27:56.122Z,22.66
2022-08-02T19:30:25.656Z,22.56
2022-08-02T19:32:59.229Z,22.47
2022-08-02T19:35:34.404Z,22.38
2022-08-02T19:38:08.580Z,22.28
2022-08-02T19:40:39.146Z,22.18
2022-08-02T19:44:27.027Z,22.08
2022-08-02T19:45:57.559Z,21.99
2022-08-02T19:48:26.966Z,21.91
2022-08-02T19:51:00.640Z,21.82
2022-08-02T19:53:46.628Z,21.75
2022-08-02T19:56:24.696Z,21.74
2022-08-02T19:58:57.462Z,21.72
2022-08-02T20:01:37.416Z,21.73
2022-08-02T20:04:13.328Z,21.70
2022-08-02T20:06:47.666Z,21.67
2022-08-02T20:09:22.209Z,21.63
2022-08-02T20:11:54.059Z,21.60
2022-08-02T20:14:26.629Z,21.58
2022-08-02T20:16:58.509Z,21.55
2022-08-02T20:19:29.139Z,21.48
2022-08-02T20:21:59.904Z,21.40
2022-08-02T20:24:29.934Z,21.36
2022-08-02T20:26:59.306Z,21.31
2022-08-02T20:29:42.834Z,21.30
2022-08-02T20:32:21.263Z,21.26
2022-08-02T20:34:52.806Z,21.21
2022-08-02T20:37:59.454Z,21.19
2022-08-02T20:40:17.123Z,21.17
2022-08-02T20:45:35.040Z,21.11
2022-08-02T20:48:03.155Z,21.09
2022-08-02T20:53:34.744Z,21.00
2022-08-02T20:56:22.432Z,20.93
2022-08-02T20:58:52.244Z,20.86
2022-08-02T21:01:21.849Z,20.80
2022-08-02T21:03:58.403Z,20.72
2022-08-02T21:06:27.898Z,20.65
2022-08-02T21:08:57.252Z,20.61
2022-08-02T21:11:33.674Z,20.56
2022-08-02T21:14:07.247Z,20.53
2022-08-02T21:16:36.975Z,20.51
2022-08-02T21:19:09.599Z,20.52
2022-08-02T21:21:37.977Z,20.56
2022-08-02T21:24:05.914Z,20.42
2022-08-02T21:26:33.699Z,20.09
2022-08-02T21:29:03.726Z,19.78
2022-08-02T21:31:36.062Z,19.41
2022-08-02T21:34:21.659Z,19.10
2022-08-02T21:36:53.474Z,18.79
2022-08-02T21:39:21.216Z,18.55
2022-08-02T21:41:49.417Z,18.34
2022-08-02T21:44:19.560Z,18.27
2022-08-02T21:46:49.915Z,18.26
2022-08-02T21:49:20.055Z,18.26
2022-08-02T21:51:50.249Z,18.22
2022-08-02T21:54:21.663Z,18.19
2022-08-02T21:56:52.080Z,18.18
2022-08-02T21:59:26.086Z,18.20
2022-08-02T22:01:56.725Z,18.22
2022-08-02T22:04:27.211Z,18.23
2022-08-02T22:06:56.137Z,18.20
2022-08-02T22:09:44.551Z,18.15
2022-08-02T22:15:10.385Z,18.05
2022-08-02T22:17:51.453Z,18.06
2022-08-02T22:20:21.807Z,18.11
2022-08-02T22:22:52.201Z,18.13
2022-08-02T22:25:31.496Z,18.13
2022-08-02T22:28:37.246Z,18.04
2022-08-02T22:31:04.405Z,17.96
2022-08-02T22:34:00.545Z,17.93
2022-08-02T22:36:38.711Z,17.89
2022-08-02T22:39:19.095Z,17.81
2022-08-02T22:42:05.686Z,17.76
2022-08-02T22:44:35.757Z,17.75
2022-08-02T22:47:07.380Z,17.76
2022-08-02T22:49:51.484Z,17.80
2022-08-02T22:52:30.743Z,17.83
2022-08-02T22:54:59.701Z,17.82
2022-08-02T22:57:30.361Z,17.78
2022-08-02T22:58:56.097Z,21.16
2022-08-02T22:58:59.151Z,26.81
2022-08-02T22:59:04.210Z,18.11
2022-08-02T22:59:06.358Z,21.09
2022-08-02T23:00:05.584Z,17.78
2022-08-02T23:02:37.816Z,17.72
2022-08-02T23:05:06.272Z,17.66
2022-08-02T23:07:38.709Z,17.62
2022-08-02T23:10:07.846Z,17.63
2022-08-02T23:12:35.997Z,17.61
2022-08-02T23:15:04.664Z,17.59
2022-08-02T23:17:48.387Z,17.58
2022-08-02T23:20:15.949Z,17.52
2022-08-02T23:22:43.607Z,17.46
2022-08-02T23:25:14.600Z,17.43
2022-08-02T23:27:50.280Z,17.44
2022-08-02T23:30:20.021Z,17.47
2022-08-02T23:32:47.782Z,17.50
2022-08-02T23:35:16.605Z,17.52
2022-08-02T23:38:00.171Z,17.53
2022-08-02T23:40:39.175Z,17.55
2022-08-02T23:43:14.745Z,17.52
2022-08-02T23:45:45.305Z,17.48
2022-08-02T23:48:13.140Z,17.46
2022-08-02T23:50:40.835Z,17.46
2022-08-02T23:53:08.459Z,17.46
2022-08-02T23:55:36.089Z,17.47
2022-08-02T23:58:03.706Z,17.48
